sensor_id;sensor_type;location;lat;lon;timestamp;pressure;altitude;pressure_sealevel;temperature;humidity
65394;BME280;52002;49.760;6.512;2024-03-02T00:00:41;98557.55;;;8.15;62.67
65394;BME280;52002;49.760;6.512;2024-03-02T00:03:07;98557.30;;;8.14;62.67
65394;BME280;52002;49.760;6.512;2024-03-02T00:05:35;98555.00;;;8.12;62.57
65394;BME280;52002;49.760;6.512;2024-03-02T00:08:00;98556.31;;;8.10;62.56
65394;BME280;52002;49.760;6.512;2024-03-02T00:10:33;98556.48;;;8.08;62.47
65394;BME280;52002;49.760;6.512;2024-03-02T00:13:02;98555.48;;;8.06;62.39
65394;BME280;52002;49.760;6.512;2024-03-02T00:17:56;98558.61;;;7.99;62.34
65394;BME280;52002;49.760;6.512;2024-03-02T00:20:24;98557.48;;;7.96;62.30
65394;BME280;52002;49.760;6.512;2024-03-02T00:23:08;98554.50;;;7.92;62.16
65394;BME280;52002;49.760;6.512;2024-03-02T00:28:02;98551.14;;;7.87;62.36
65394;BME280;52002;49.760;6.512;2024-03-02T00:33:08;98553.30;;;7.81;62.31
65394;BME280;52002;49.760;6.512;2024-03-02T00:35:35;98552.27;;;7.79;62.26
65394;BME280;52002;49.760;6.512;2024-03-02T00:38:04;98555.98;;;7.78;62.20
65394;BME280;52002;49.760;6.512;2024-03-02T00:40:31;98553.19;;;7.75;62.61
65394;BME280;52002;49.760;6.512;2024-03-02T00:42:57;98555.61;;;7.72;62.42
65394;BME280;52002;49.760;6.512;2024-03-02T00:45:23;98556.03;;;7.70;62.67
65394;BME280;52002;49.760;6.512;2024-03-02T00:47:50;98555.30;;;7.68;62.72
65394;BME280;52002;49.760;6.512;2024-03-02T00:50:16;98553.83;;;7.69;62.90
65394;BME280;52002;49.760;6.512;2024-03-02T00:52:41;98561.88;;;7.71;62.75
65394;BME280;52002;49.760;6.512;2024-03-02T00:55:07;98556.33;;;7.74;62.66
65394;BME280;52002;49.760;6.512;2024-03-02T00:57:34;98557.05;;;7.78;62.53
65394;BME280;52002;49.760;6.512;2024-03-02T01:00:02;98555.29;;;7.81;62.44
65394;BME280;52002;49.760;6.512;2024-03-02T01:02:32;98550.39;;;7.82;62.20
65394;BME280;52002;49.760;6.512;2024-03-02T01:04:57;98548.39;;;7.83;62.32
65394;BME280;52002;49.760;6.512;2024-03-02T01:07:23;98550.25;;;7.82;62.34
65394;BME280;52002;49.760;6.512;2024-03-02T01:09:48;98546.66;;;7.82;62.38
65394;BME280;52002;49.760;6.512;2024-03-02T01:12:14;98545.54;;;7.83;62.49
65394;BME280;52002;49.760;6.512;2024-03-02T01:14:40;98547.90;;;7.84;62.57
65394;BME280;52002;49.760;6.512;2024-03-02T01:17:05;98547.87;;;7.86;62.56
65394;BME280;52002;49.760;6.512;2024-03-02T01:19:30;98547.63;;;7.88;62.41
65394;BME280;52002;49.760;6.512;2024-03-02T01:21:56;98544.45;;;7.90;62.37
65394;BME280;52002;49.760;6.512;2024-03-02T01:24:22;98549.33;;;7.93;62.44
65394;BME280;52002;49.760;6.512;2024-03-02T01:26:47;98550.16;;;7.95;62.31
65394;BME280;52002;49.760;6.512;2024-03-02T01:29:12;98544.73;;;7.96;62.16
65394;BME280;52002;49.760;6.512;2024-03-02T01:31:37;98545.00;;;7.99;62.19
65394;BME280;52002;49.760;6.512;2024-03-02T01:34:05;98548.25;;;8.00;62.20
65394;BME280;52002;49.760;6.512;2024-03-02T01:36:30;98548.63;;;8.01;62.23
65394;BME280;52002;49.760;6.512;2024-03-02T01:38:55;98549.29;;;8.03;62.02
65394;BME280;52002;49.760;6.512;2024-03-02T01:41:21;98549.71;;;8.07;62.00
65394;BME280;52002;49.760;6.512;2024-03-02T01:43:46;98543.88;;;8.08;61.97
65394;BME280;52002;49.760;6.512;2024-03-02T01:46:11;98543.08;;;8.09;61.81
65394;BME280;52002;49.760;6.512;2024-03-02T01:48:37;98549.69;;;8.09;61.80
65394;BME280;52002;49.760;6.512;2024-03-02T01:51:03;98549.95;;;8.08;61.69
65394;BME280;52002;49.760;6.512;2024-03-02T01:53:30;98545.27;;;8.09;61.84
65394;BME280;52002;49.760;6.512;2024-03-02T01:55:55;98549.23;;;8.10;61.63
65394;BME280;52002;49.760;6.512;2024-03-02T01:58:20;98553.85;;;8.11;61.73
65394;BME280;52002;49.760;6.512;2024-03-02T02:00:46;98556.95;;;8.12;61.59
65394;BME280;52002;49.760;6.512;2024-03-02T02:03:13;98559.46;;;8.14;61.54
65394;BME280;52002;49.760;6.512;2024-03-02T02:05:38;98557.98;;;8.14;61.63
65394;BME280;52002;49.760;6.512;2024-03-02T02:08:04;98560.40;;;8.15;61.50
65394;BME280;52002;49.760;6.512;2024-03-02T02:10:29;98560.91;;;8.15;61.51
65394;BME280;52002;49.760;6.512;2024-03-02T02:12:55;98558.45;;;8.15;61.44
65394;BME280;52002;49.760;6.512;2024-03-02T02:15:30;98559.11;;;8.15;61.51
65394;BME280;52002;49.760;6.512;2024-03-02T02:17:56;98556.26;;;8.16;61.37
65394;BME280;52002;49.760;6.512;2024-03-02T02:20:23;98562.77;;;8.16;61.42
65394;BME280;52002;49.760;6.512;2024-03-02T02:23:07;98560.08;;;8.16;61.34
65394;BME280;52002;49.760;6.512;2024-03-02T02:25:35;98554.33;;;8.17;61.31
65394;BME280;52002;49.760;6.512;2024-03-02T02:28:00;98556.27;;;8.17;61.42
65394;BME280;52002;49.760;6.512;2024-03-02T02:30:31;98563.48;;;8.18;61.44
65394;BME280;52002;49.760;6.512;2024-03-02T02:32:57;98556.38;;;8.18;61.52
65394;BME280;52002;49.760;6.512;2024-03-02T02:35:23;98554.25;;;8.18;61.33
65394;BME280;52002;49.760;6.512;2024-03-02T02:37:53;98562.78;;;8.18;61.60
65394;BME280;52002;49.760;6.512;2024-03-02T02:40:19;98557.27;;;8.16;61.52
65394;BME280;52002;49.760;6.512;2024-03-02T02:42:44;98559.98;;;8.17;61.81
65394;BME280;52002;49.760;6.512;2024-03-02T02:45:10;98559.23;;;8.16;61.96
65394;BME280;52002;49.760;6.512;2024-03-02T02:47:38;98550.40;;;8.15;61.97
65394;BME280;52002;49.760;6.512;2024-03-02T02:50:04;98544.15;;;8.14;62.16
65394;BME280;52002;49.760;6.512;2024-03-02T02:52:37;98548.69;;;8.13;62.06
65394;BME280;52002;49.760;6.512;2024-03-02T02:55:06;98554.17;;;8.13;62.21
65394;BME280;52002;49.760;6.512;2024-03-02T02:57:33;98558.72;;;8.14;62.11
65394;BME280;52002;49.760;6.512;2024-03-02T03:00:10;98556.95;;;8.14;62.22
65394;BME280;52002;49.760;6.512;2024-03-02T03:02:43;98554.52;;;8.14;62.58
65394;BME280;52002;49.760;6.512;2024-03-02T03:05:10;98555.10;;;8.13;62.47
65394;BME280;52002;49.760;6.512;2024-03-02T03:07:36;98554.30;;;8.12;62.39
65394;BME280;52002;49.760;6.512;2024-03-02T03:10:03;98549.08;;;8.11;62.51
65394;BME280;52002;49.760;6.512;2024-03-02T03:12:30;98558.84;;;8.09;62.61
65394;BME280;52002;49.760;6.512;2024-03-02T03:14:56;98556.34;;;8.06;62.46
65394;BME280;52002;49.760;6.512;2024-03-02T03:17:22;98554.14;;;8.04;62.69
65394;BME280;52002;49.760;6.512;2024-03-02T03:19:49;98555.73;;;8.03;62.60
65394;BME280;52002;49.760;6.512;2024-03-02T03:22:14;98559.39;;;8.00;62.68
65394;BME280;52002;49.760;6.512;2024-03-02T03:24:39;98558.87;;;7.98;62.83
65394;BME280;52002;49.760;6.512;2024-03-02T03:27:05;98562.80;;;7.96;62.77
65394;BME280;52002;49.760;6.512;2024-03-02T03:29:30;98564.61;;;7.94;62.84
65394;BME280;52002;49.760;6.512;2024-03-02T03:31:56;98565.53;;;7.92;63.14
65394;BME280;52002;49.760;6.512;2024-03-02T03:34:21;98562.35;;;7.90;63.35
65394;BME280;52002;49.760;6.512;2024-03-02T03:36:47;98565.30;;;7.89;63.50
65394;BME280;52002;49.760;6.512;2024-03-02T03:39:12;98564.95;;;7.87;63.71
65394;BME280;52002;49.760;6.512;2024-03-02T03:41:37;98569.27;;;7.85;63.96
65394;BME280;52002;49.760;6.512;2024-03-02T03:44:03;98572.86;;;7.84;63.91
65394;BME280;52002;49.760;6.512;2024-03-02T03:46:29;98570.18;;;7.83;63.95
65394;BME280;52002;49.760;6.512;2024-03-02T03:48:54;98572.47;;;7.83;64.11
65394;BME280;52002;49.760;6.512;2024-03-02T03:51:21;98576.62;;;7.82;64.29
65394;BME280;52002;49.760;6.512;2024-03-02T03:53:48;98575.66;;;7.83;64.40
65394;BME280;52002;49.760;6.512;2024-03-02T03:56:13;98576.27;;;7.84;64.48
65394;BME280;52002;49.760;6.512;2024-03-02T03:58:39;98583.65;;;7.85;64.45
65394;BME280;52002;49.760;6.512;2024-03-02T04:01:04;98588.46;;;7.84;64.62
65394;BME280;52002;49.760;6.512;2024-03-02T04:03:29;98587.70;;;7.83;64.69
65394;BME280;52002;49.760;6.512;2024-03-02T04:05:55;98590.05;;;7.83;64.92
65394;BME280;52002;49.760;6.512;2024-03-02T04:08:21;98597.66;;;7.81;64.91
65394;BME280;52002;49.760;6.512;2024-03-02T04:10:46;98598.45;;;7.80;65.24
65394;BME280;52002;49.760;6.512;2024-03-02T04:13:12;98595.38;;;7.79;65.39
65394;BME280;52002;49.760;6.512;2024-03-02T04:15:37;98597.54;;;7.78;65.38
65394;BME280;52002;49.760;6.512;2024-03-02T04:18:03;98588.54;;;7.78;65.45
65394;BME280;52002;49.760;6.512;2024-03-02T04:20:28;98586.97;;;7.78;65.67
65394;BME280;52002;49.760;6.512;2024-03-02T04:22:55;98598.20;;;7.77;65.72
65394;BME280;52002;49.760;6.512;2024-03-02T04:25:21;98599.95;;;7.77;65.76
65394;BME280;52002;49.760;6.512;2024-03-02T04:27:46;98601.33;;;7.78;65.91
65394;BME280;52002;49.760;6.512;2024-03-02T04:30:12;98599.39;;;7.78;66.00
65394;BME280;52002;49.760;6.512;2024-03-02T04:32:38;98604.40;;;7.77;66.20
65394;BME280;52002;49.760;6.512;2024-03-02T04:35:05;98604.66;;;7.76;66.43
65394;BME280;52002;49.760;6.512;2024-03-02T04:37:33;98608.73;;;7.74;66.68
65394;BME280;52002;49.760;6.512;2024-03-02T04:39:59;98605.19;;;7.72;66.96
65394;BME280;52002;49.760;6.512;2024-03-02T04:42:25;98609.15;;;7.70;67.24
65394;BME280;52002;49.760;6.512;2024-03-02T04:44:50;98610.54;;;7.68;67.41
65394;BME280;52002;49.760;6.512;2024-03-02T04:47:16;98604.35;;;7.66;67.68
65394;BME280;52002;49.760;6.512;2024-03-02T04:49:41;98600.59;;;7.65;67.83
65394;BME280;52002;49.760;6.512;2024-03-02T04:52:06;98600.52;;;7.64;68.09
65394;BME280;52002;49.760;6.512;2024-03-02T04:54:32;98605.35;;;7.64;68.35
65394;BME280;52002;49.760;6.512;2024-03-02T04:56:57;98606.45;;;7.63;68.32
65394;BME280;52002;49.760;6.512;2024-03-02T04:59:23;98609.14;;;7.63;68.73
65394;BME280;52002;49.760;6.512;2024-03-02T05:01:49;98611.10;;;7.65;69.02
65394;BME280;52002;49.760;6.512;2024-03-02T05:04:14;98608.02;;;7.65;69.10
65394;BME280;52002;49.760;6.512;2024-03-02T05:06:40;98608.35;;;7.64;69.18
65394;BME280;52002;49.760;6.512;2024-03-02T05:09:07;98608.23;;;7.61;69.48
65394;BME280;52002;49.760;6.512;2024-03-02T05:11:32;98608.79;;;7.61;69.36
65394;BME280;52002;49.760;6.512;2024-03-02T05:14:06;98609.64;;;7.60;69.46
65394;BME280;52002;49.760;6.512;2024-03-02T05:16:35;98608.59;;;7.58;69.58
65394;BME280;52002;49.760;6.512;2024-03-02T05:19:02;98614.44;;;7.56;69.52
65394;BME280;52002;49.760;6.512;2024-03-02T05:21:27;98615.29;;;7.54;69.69
65394;BME280;52002;49.760;6.512;2024-03-02T05:23:52;98610.69;;;7.52;69.92
65394;BME280;52002;49.760;6.512;2024-03-02T05:26:18;98613.29;;;7.53;69.97
65394;BME280;52002;49.760;6.512;2024-03-02T05:28:43;98615.08;;;7.53;69.77
65394;BME280;52002;49.760;6.512;2024-03-02T05:31:10;98614.23;;;7.52;70.09
65394;BME280;52002;49.760;6.512;2024-03-02T05:33:38;98607.64;;;7.53;70.02
65394;BME280;52002;49.760;6.512;2024-03-02T05:36:04;98613.84;;;7.53;69.83
65394;BME280;52002;49.760;6.512;2024-03-02T05:38:29;98614.88;;;7.53;69.99
65394;BME280;52002;49.760;6.512;2024-03-02T05:40:55;98616.19;;;7.54;70.11
65394;BME280;52002;49.760;6.512;2024-03-02T05:43:20;98618.92;;;7.53;69.96
65394;BME280;52002;49.760;6.512;2024-03-02T05:45:45;98620.80;;;7.52;70.09
65394;BME280;52002;49.760;6.512;2024-03-02T05:48:11;98616.02;;;7.51;70.10
65394;BME280;52002;49.760;6.512;2024-03-02T05:50:36;98611.88;;;7.48;70.03
65394;BME280;52002;49.760;6.512;2024-03-02T05:53:02;98612.91;;;7.48;70.27
65394;BME280;52002;49.760;6.512;2024-03-02T05:55:27;98611.27;;;7.47;70.35
65394;BME280;52002;49.760;6.512;2024-03-02T05:57:53;98615.44;;;7.46;70.38
65394;BME280;52002;49.760;6.512;2024-03-02T06:00:38;98618.48;;;7.45;70.44
65394;BME280;52002;49.760;6.512;2024-03-02T06:03:04;98616.00;;;7.45;70.39
65394;BME280;52002;49.760;6.512;2024-03-02T06:05:31;98621.68;;;7.45;70.54
65394;BME280;52002;49.760;6.512;2024-03-02T06:07:56;98621.53;;;7.47;70.79
65394;BME280;52002;49.760;6.512;2024-03-02T06:10:21;98617.97;;;7.49;70.93
65394;BME280;52002;49.760;6.512;2024-03-02T06:12:47;98623.02;;;7.51;70.85
65394;BME280;52002;49.760;6.512;2024-03-02T06:15:12;98623.99;;;7.52;70.98
65394;BME280;52002;49.760;6.512;2024-03-02T06:17:38;98627.91;;;7.52;71.04
65394;BME280;52002;49.760;6.512;2024-03-02T06:20:03;98628.52;;;7.53;71.18
65394;BME280;52002;49.760;6.512;2024-03-02T06:22:29;98628.64;;;7.54;71.19
65394;BME280;52002;49.760;6.512;2024-03-02T06:24:54;98626.13;;;7.54;71.22
65394;BME280;52002;49.760;6.512;2024-03-02T06:27:20;98626.27;;;7.54;71.24
65394;BME280;52002;49.760;6.512;2024-03-02T06:29:45;98631.00;;;7.55;71.46
65394;BME280;52002;49.760;6.512;2024-03-02T06:32:11;98631.45;;;7.57;71.36
65394;BME280;52002;49.760;6.512;2024-03-02T06:34:36;98627.96;;;7.57;71.52
65394;BME280;52002;49.760;6.512;2024-03-02T06:37:01;98624.52;;;7.58;71.62
65394;BME280;52002;49.760;6.512;2024-03-02T06:39:27;98631.14;;;7.59;71.67
65394;BME280;52002;49.760;6.512;2024-03-02T06:41:53;98631.38;;;7.60;71.70
65394;BME280;52002;49.760;6.512;2024-03-02T06:44:18;98633.47;;;7.62;71.95
65394;BME280;52002;49.760;6.512;2024-03-02T06:46:43;98632.98;;;7.65;71.81
65394;BME280;52002;49.760;6.512;2024-03-02T06:49:09;98633.48;;;7.67;71.77
65394;BME280;52002;49.760;6.512;2024-03-02T06:51:36;98641.22;;;7.69;71.80
65394;BME280;52002;49.760;6.512;2024-03-02T06:54:01;98639.06;;;7.72;71.98
65394;BME280;52002;49.760;6.512;2024-03-02T06:56:27;98644.20;;;7.78;72.12
65394;BME280;52002;49.760;6.512;2024-03-02T06:58:52;98649.55;;;7.84;72.25
65394;BME280;52002;49.760;6.512;2024-03-02T07:01:18;98656.22;;;7.87;72.14
65394;BME280;52002;49.760;6.512;2024-03-02T07:03:43;98656.76;;;7.90;72.41
65394;BME280;52002;49.760;6.512;2024-03-02T07:06:09;98656.03;;;7.94;72.36
65394;BME280;52002;49.760;6.512;2024-03-02T07:08:34;98655.25;;;7.97;72.14
65394;BME280;52002;49.760;6.512;2024-03-02T07:11:00;98654.48;;;7.99;72.34
65394;BME280;52002;49.760;6.512;2024-03-02T07:13:26;98654.22;;;8.03;72.28
65394;BME280;52002;49.760;6.512;2024-03-02T07:15:52;98653.91;;;8.07;72.21
65394;BME280;52002;49.760;6.512;2024-03-02T07:18:30;98659.15;;;8.09;72.22
65394;BME280;52002;49.760;6.512;2024-03-02T07:20:56;98662.69;;;8.15;72.36
65394;BME280;52002;49.760;6.512;2024-03-02T07:23:24;98660.27;;;8.26;72.49
65394;BME280;52002;49.760;6.512;2024-03-02T07:25:52;98655.34;;;8.42;72.46
65394;BME280;52002;49.760;6.512;2024-03-02T07:28:20;98654.84;;;8.59;72.10
65394;BME280;52002;49.760;6.512;2024-03-02T07:30:45;98657.55;;;8.68;71.95
65394;BME280;52002;49.760;6.512;2024-03-02T07:33:11;98661.63;;;8.78;72.05
65394;BME280;52002;49.760;6.512;2024-03-02T07:35:36;98669.96;;;8.85;71.75
65394;BME280;52002;49.760;6.512;2024-03-02T07:38:02;98666.15;;;8.96;71.48
65394;BME280;52002;49.760;6.512;2024-03-02T07:40:27;98666.36;;;9.08;71.14
65394;BME280;52002;49.760;6.512;2024-03-02T07:42:53;98668.34;;;9.20;70.81
65394;BME280;52002;49.760;6.512;2024-03-02T07:45:18;98668.34;;;9.29;70.47
65394;BME280;52002;49.760;6.512;2024-03-02T07:47:44;98667.40;;;9.38;70.35
65394;BME280;52002;49.760;6.512;2024-03-02T07:50:10;98666.73;;;9.40;70.34
65394;BME280;52002;49.760;6.512;2024-03-02T07:52:35;98667.25;;;9.44;70.21
65394;BME280;52002;49.760;6.512;2024-03-02T07:55:00;98672.09;;;9.45;69.88
65394;BME280;52002;49.760;6.512;2024-03-02T07:57:26;98675.29;;;9.45;69.72
65394;BME280;52002;49.760;6.512;2024-03-02T07:59:52;98679.96;;;9.48;69.65
65394;BME280;52002;49.760;6.512;2024-03-02T08:02:17;98680.56;;;9.51;69.53
65394;BME280;52002;49.760;6.512;2024-03-02T08:04:43;98681.77;;;9.53;69.38
65394;BME280;52002;49.760;6.512;2024-03-02T08:07:08;98687.40;;;9.53;69.24
65394;BME280;52002;49.760;6.512;2024-03-02T08:09:34;98691.09;;;9.50;69.29
65394;BME280;52002;49.760;6.512;2024-03-02T08:12:00;98696.39;;;9.44;69.28
65394;BME280;52002;49.760;6.512;2024-03-02T08:14:25;98697.23;;;9.38;69.10
65394;BME280;52002;49.760;6.512;2024-03-02T08:16:50;98689.89;;;9.32;68.94
65394;BME280;52002;49.760;6.512;2024-03-02T08:19:16;98677.83;;;9.28;68.70
65394;BME280;52002;49.760;6.512;2024-03-02T08:21:42;98674.73;;;9.30;68.58
65394;BME280;52002;49.760;6.512;2024-03-02T08:24:08;98669.52;;;9.46;68.37
65394;BME280;52002;49.760;6.512;2024-03-02T08:26:34;98666.52;;;9.73;67.67
65394;BME280;52002;49.760;6.512;2024-03-02T08:29:00;98665.77;;;9.89;67.27
65394;BME280;52002;49.760;6.512;2024-03-02T08:31:27;98665.52;;;10.01;67.51
65394;BME280;52002;49.760;6.512;2024-03-02T08:33:53;98668.21;;;10.10;67.35
65394;BME280;52002;49.760;6.512;2024-03-02T08:36:19;98659.39;;;10.15;66.79
65394;BME280;52002;49.760;6.512;2024-03-02T08:38:45;98663.23;;;10.17;66.58
65394;BME280;52002;49.760;6.512;2024-03-02T08:41:11;98661.86;;;10.22;66.47
65394;BME280;52002;49.760;6.512;2024-03-02T08:43:40;98669.63;;;10.27;66.24
65394;BME280;52002;49.760;6.512;2024-03-02T08:46:06;98679.14;;;10.41;65.65
65394;BME280;52002;49.760;6.512;2024-03-02T08:48:32;98672.20;;;10.56;65.35
65394;BME280;52002;49.760;6.512;2024-03-02T08:50:57;98671.40;;;10.65;65.23
65394;BME280;52002;49.760;6.512;2024-03-02T08:53:22;98676.23;;;10.68;64.90
65394;BME280;52002;49.760;6.512;2024-03-02T08:55:48;98678.19;;;10.74;64.91
65394;BME280;52002;49.760;6.512;2024-03-02T08:58:14;98674.33;;;10.86;64.51
65394;BME280;52002;49.760;6.512;2024-03-02T09:00:40;98672.21;;;10.96;64.01
65394;BME280;52002;49.760;6.512;2024-03-02T09:03:06;98673.27;;;11.01;63.67
65394;BME280;52002;49.760;6.512;2024-03-02T09:05:31;98680.11;;;11.02;63.45
65394;BME280;52002;49.760;6.512;2024-03-02T09:07:57;98691.84;;;11.01;63.67
65394;BME280;52002;49.760;6.512;2024-03-02T09:10:22;98690.91;;;11.00;63.31
65394;BME280;52002;49.760;6.512;2024-03-02T09:12:47;98684.23;;;11.00;63.17
65394;BME280;52002;49.760;6.512;2024-03-02T09:15:13;98688.44;;;10.98;63.07
65394;BME280;52002;49.760;6.512;2024-03-02T09:17:38;98689.52;;;10.95;63.19
65394;BME280;52002;49.760;6.512;2024-03-02T09:20:05;98687.20;;;10.90;63.16
65394;BME280;52002;49.760;6.512;2024-03-02T09:22:30;98689.95;;;10.83;63.07
65394;BME280;52002;49.760;6.512;2024-03-02T09:24:56;98692.78;;;10.73;63.11
65394;BME280;52002;49.760;6.512;2024-03-02T09:27:21;98695.98;;;10.65;63.42
65394;BME280;52002;49.760;6.512;2024-03-02T09:29:47;98699.27;;;10.54;63.25
65394;BME280;52002;49.760;6.512;2024-03-02T09:32:13;98695.89;;;10.44;63.33
65394;BME280;52002;49.760;6.512;2024-03-02T09:34:39;98698.06;;;10.41;63.29
65394;BME280;52002;49.760;6.512;2024-03-02T09:37:06;98685.91;;;10.38;63.49
65394;BME280;52002;49.760;6.512;2024-03-02T09:39:31;98682.64;;;10.42;63.18
65394;BME280;52002;49.760;6.512;2024-03-02T09:41:58;98676.06;;;10.48;63.41
65394;BME280;52002;49.760;6.512;2024-03-02T09:44:24;98675.88;;;10.50;63.48
65394;BME280;52002;49.760;6.512;2024-03-02T09:46:51;98672.83;;;10.52;63.50
65394;BME280;52002;49.760;6.512;2024-03-02T09:49:16;98666.98;;;10.50;63.29
65394;BME280;52002;49.760;6.512;2024-03-02T09:51:47;98671.46;;;10.50;63.44
65394;BME280;52002;49.760;6.512;2024-03-02T09:54:12;98659.35;;;10.55;63.34
65394;BME280;52002;49.760;6.512;2024-03-02T09:56:38;98656.33;;;10.77;63.26
65394;BME280;52002;49.760;6.512;2024-03-02T09:59:04;98645.36;;;11.04;63.12
65394;BME280;52002;49.760;6.512;2024-03-02T10:01:30;98646.33;;;11.32;62.55
65394;BME280;52002;49.760;6.512;2024-03-02T10:03:59;98643.57;;;11.49;62.45
65394;BME280;52002;49.760;6.512;2024-03-02T10:06:26;98641.55;;;11.57;62.32
65394;BME280;52002;49.760;6.512;2024-03-02T10:08:53;98646.73;;;11.66;62.23
65394;BME280;52002;49.760;6.512;2024-03-02T10:11:29;98648.58;;;11.74;62.24
65394;BME280;52002;49.760;6.512;2024-03-02T10:14:14;98641.25;;;11.86;62.09
65394;BME280;52002;49.760;6.512;2024-03-02T10:16:42;98644.64;;;12.06;61.86
65394;BME280;52002;49.760;6.512;2024-03-02T10:19:21;98641.02;;;12.22;61.39
65394;BME280;52002;49.760;6.512;2024-03-02T10:21:48;98638.56;;;12.36;60.89
65394;BME280;52002;49.760;6.512;2024-03-02T10:24:15;98634.27;;;12.45;60.87
65394;BME280;52002;49.760;6.512;2024-03-02T10:26:41;98634.58;;;12.53;60.61
65394;BME280;52002;49.760;6.512;2024-03-02T10:29:08;98639.11;;;12.63;60.46
65394;BME280;52002;49.760;6.512;2024-03-02T10:31:40;98635.63;;;12.68;60.40
65394;BME280;52002;49.760;6.512;2024-03-02T10:34:06;98632.70;;;12.69;60.21
65394;BME280;52002;49.760;6.512;2024-03-02T10:36:36;98638.80;;;12.66;59.94
65394;BME280;52002;49.760;6.512;2024-03-02T10:39:05;98635.98;;;12.61;60.27
65394;BME280;52002;49.760;6.512;2024-03-02T10:41:36;98630.23;;;12.74;60.28
65394;BME280;52002;49.760;6.512;2024-03-02T10:44:06;98614.71;;;12.77;60.03
65394;BME280;52002;49.760;6.512;2024-03-02T10:46:33;98611.98;;;12.75;60.08
65394;BME280;52002;49.760;6.512;2024-03-02T10:49:00;98613.37;;;12.80;59.91
65394;BME280;52002;49.760;6.512;2024-03-02T10:51:31;98610.61;;;12.91;59.81
65394;BME280;52002;49.760;6.512;2024-03-02T10:54:01;98614.90;;;13.01;59.68
65394;BME280;52002;49.760;6.512;2024-03-02T10:56:31;98608.60;;;13.09;59.38
65394;BME280;52002;49.760;6.512;2024-03-02T10:59:02;98601.14;;;13.20;59.08
65394;BME280;52002;49.760;6.512;2024-03-02T11:01:32;98601.84;;;13.34;59.09
65394;BME280;52002;49.760;6.512;2024-03-02T11:03:59;98599.82;;;13.46;59.04
65394;BME280;52002;49.760;6.512;2024-03-02T11:06:27;98594.14;;;13.55;58.72
65394;BME280;52002;49.760;6.512;2024-03-02T11:08:55;98596.30;;;13.56;58.33
65394;BME280;52002;49.760;6.512;2024-03-02T11:11:29;98598.42;;;13.50;58.47
65394;BME280;52002;49.760;6.512;2024-03-02T11:13:57;98595.70;;;13.45;58.66
65394;BME280;52002;49.760;6.512;2024-03-02T11:16:33;98588.86;;;13.41;58.59
65394;BME280;52002;49.760;6.512;2024-03-02T11:19:06;98587.09;;;13.36;58.38
65394;BME280;52002;49.760;6.512;2024-03-02T11:21:34;98581.77;;;13.35;58.34
65394;BME280;52002;49.760;6.512;2024-03-02T11:24:00;98574.75;;;13.38;58.18
65394;BME280;52002;49.760;6.512;2024-03-02T11:26:27;98575.41;;;13.43;57.96
65394;BME280;52002;49.760;6.512;2024-03-02T11:28:54;98571.45;;;13.52;57.68
65394;BME280;52002;49.760;6.512;2024-03-02T11:31:21;98568.21;;;13.56;57.30
65394;BME280;52002;49.760;6.512;2024-03-02T11:33:46;98564.60;;;13.50;57.16
65394;BME280;52002;49.760;6.512;2024-03-02T11:36:11;98560.81;;;13.46;57.09
65394;BME280;52002;49.760;6.512;2024-03-02T11:38:37;98556.36;;;13.43;57.18
65394;BME280;52002;49.760;6.512;2024-03-02T11:41:06;98558.79;;;13.45;57.10
65394;BME280;52002;49.760;6.512;2024-03-02T11:43:37;98558.33;;;13.50;57.29
65394;BME280;52002;49.760;6.512;2024-03-02T11:46:05;98562.80;;;13.57;56.95
65394;BME280;52002;49.760;6.512;2024-03-02T11:48:35;98558.30;;;13.60;56.49
65394;BME280;52002;49.760;6.512;2024-03-02T11:51:02;98553.48;;;13.65;56.44
65394;BME280;52002;49.760;6.512;2024-03-02T11:53:28;98551.16;;;13.74;56.09
65394;BME280;52002;49.760;6.512;2024-03-02T11:55:58;98547.11;;;13.78;55.93
65394;BME280;52002;49.760;6.512;2024-03-02T11:58:24;98542.06;;;13.81;55.73
65394;BME280;52002;49.760;6.512;2024-03-02T12:00:55;98534.71;;;13.86;55.14
65394;BME280;52002;49.760;6.512;2024-03-02T12:03:23;98532.43;;;13.82;55.31
65394;BME280;52002;49.760;6.512;2024-03-02T12:05:55;98522.19;;;13.84;55.23
65394;BME280;52002;49.760;6.512;2024-03-02T12:08:21;98518.34;;;13.88;55.25
65394;BME280;52002;49.760;6.512;2024-03-02T12:11:00;98511.05;;;13.85;55.04
65394;BME280;52002;49.760;6.512;2024-03-02T12:13:26;98510.39;;;13.78;54.96
65394;BME280;52002;49.760;6.512;2024-03-02T12:15:54;98514.34;;;13.68;54.93
65394;BME280;52002;49.760;6.512;2024-03-02T12:18:21;98504.44;;;13.57;54.62
65394;BME280;52002;49.760;6.512;2024-03-02T12:20:49;98500.39;;;13.42;54.67
65394;BME280;52002;49.760;6.512;2024-03-02T12:23:14;98498.08;;;13.33;54.81
65394;BME280;52002;49.760;6.512;2024-03-02T12:25:40;98502.98;;;13.36;55.21
65394;BME280;52002;49.760;6.512;2024-03-02T12:28:06;98492.60;;;13.47;55.14
65394;BME280;52002;49.760;6.512;2024-03-02T12:30:35;98491.92;;;13.70;55.03
65394;BME280;52002;49.760;6.512;2024-03-02T12:33:00;98490.20;;;13.94;54.91
65394;BME280;52002;49.760;6.512;2024-03-02T12:35:26;98485.94;;;14.05;54.82
65394;BME280;52002;49.760;6.512;2024-03-02T12:37:52;98482.42;;;14.10;54.34
65394;BME280;52002;49.760;6.512;2024-03-02T12:40:19;98482.45;;;14.13;54.25
65394;BME280;52002;49.760;6.512;2024-03-02T12:42:46;98479.59;;;14.21;54.10
65394;BME280;52002;49.760;6.512;2024-03-02T12:45:12;98488.81;;;14.30;53.89
65394;BME280;52002;49.760;6.512;2024-03-02T12:47:40;98482.77;;;14.33;53.48
65394;BME280;52002;49.760;6.512;2024-03-02T12:50:06;98479.47;;;14.28;53.49
65394;BME280;52002;49.760;6.512;2024-03-02T12:52:32;98479.09;;;14.21;53.35
65394;BME280;52002;49.760;6.512;2024-03-02T12:55:04;98476.48;;;14.24;53.42
65394;BME280;52002;49.760;6.512;2024-03-02T12:57:31;98469.02;;;14.30;53.22
65394;BME280;52002;49.760;6.512;2024-03-02T13:00:06;98472.29;;;14.28;52.93
65394;BME280;52002;49.760;6.512;2024-03-02T13:02:36;98472.49;;;14.20;52.88
65394;BME280;52002;49.760;6.512;2024-03-02T13:05:02;98465.33;;;14.16;52.70
65394;BME280;52002;49.760;6.512;2024-03-02T13:07:28;98461.73;;;14.14;52.80
65394;BME280;52002;49.760;6.512;2024-03-02T13:09:55;98451.80;;;14.13;52.78
65394;BME280;52002;49.760;6.512;2024-03-02T13:12:24;98458.44;;;14.10;52.71